KCFD

Coulter Field Airport

Bryan, Texas, USA
METAR KCFD 171355Z AUTO 00000KT 10SM CLR 08/05 A3025 RMK AO2 T00840051
Observed Flight Rules
Dec-17 @ 13:55 UTC (34 minutes ago) Visual Flight Rules
Visibility Clouds
10 miles
  • Clear skies
Temperatures Readings
Current 8°C / 46°F
Dewpoint 5°C / 41°F
Humidity 82%
Altimeter 30.25" Hg
Pressure 1024 hPa
Elevation 112
METAR KCFD 171355Z AUTO 00000KT 10SM CLR 08/05 A3025 RMK AO2 T00840051
Observed Flight Rules
Dec-17 @ 13:55 UTC
(34 minutes ago)
VFR
Clouds
  • Clear skies
Temperature Dewpoint
8°C / 46°F 5°C / 41°F
Humidity Altimeter Pressure
82% 30.25" Hg 1024 hPa